createdAt,value
2022-10-12T00:01:59.583Z,102271.13
2022-10-12T00:05:03.672Z,102269.19
2022-10-12T00:08:06.599Z,102280.47
2022-10-12T00:11:12.539Z,102291.19
2022-10-12T00:14:15.286Z,102291.84
2022-10-12T00:17:17.966Z,102279.50
2022-10-12T00:20:21.895Z,102285.53
2022-10-12T00:23:24.578Z,102292.69
2022-10-12T00:26:29.041Z,102289.69
2022-10-12T00:29:31.803Z,102284.25
2022-10-12T00:32:34.481Z,102274.75
2022-10-12T00:35:38.439Z,102280.19
2022-10-12T00:38:41.049Z,102286.28
2022-10-12T00:41:45.062Z,102287.53
2022-10-12T00:44:49.823Z,102287.47
2022-10-12T00:47:56.888Z,102287.06
2022-10-12T00:51:03.645Z,102283.03
2022-10-12T00:54:10.359Z,102290.28
2022-10-12T00:57:15.746Z,102286.13
2022-10-12T01:00:20.118Z,102298.25
2022-10-12T01:03:24.188Z,102289.81
2022-10-12T01:06:28.225Z,102295.28
2022-10-12T01:09:31.474Z,102292.56
2022-10-12T01:12:35.431Z,102287.28
2022-10-12T01:15:43.887Z,102290.56
2022-10-12T01:18:51.555Z,102287.69
2022-10-12T01:22:01.997Z,102291.06
2022-10-12T01:25:17.718Z,102294.44
2022-10-12T01:28:31.181Z,102299.88
2022-10-12T01:31:42.079Z,102296.31
2022-10-12T01:34:48.811Z,102292.44
2022-10-12T01:37:59.361Z,102296.59
2022-10-12T01:41:08.378Z,102298.56
2022-10-12T01:44:11.056Z,102300.66
2022-10-12T01:47:15.113Z,102298.75
2022-10-12T01:50:18.741Z,102301.69
2022-10-12T01:53:37.565Z,102300.84
2022-10-12T01:56:49.251Z,102296.16
2022-10-12T02:00:02.777Z,102303.47
2022-10-12T02:03:15.263Z,102295.97
2022-10-12T02:06:20.326Z,102294.75
2022-10-12T02:09:27.583Z,102282.16
2022-10-12T02:12:32.564Z,102288.91
2022-10-12T02:15:38.021Z,102290.13
2022-10-12T02:18:46.406Z,102279.63
2022-10-12T02:21:51.371Z,102285.28
2022-10-12T02:24:58.208Z,102281.50
2022-10-12T02:28:06.427Z,102290.22
2022-10-12T02:31:16.102Z,102286.84
2022-10-12T02:34:25.343Z,102282.91
2022-10-12T02:37:36.022Z,102281.59
2022-10-12T02:40:43.638Z,102279.06
2022-10-12T02:43:51.414Z,102277.38
2022-10-12T02:46:55.824Z,102270.44
2022-10-12T02:50:01.910Z,102265.81
2022-10-12T02:53:05.640Z,102266.19
2022-10-12T02:56:11.961Z,102266.19
2022-10-12T02:59:15.159Z,102265.13
2022-10-12T03:02:17.835Z,102267.22
2022-10-12T03:05:21.717Z,102269.00
2022-10-12T03:08:24.504Z,102268.88
2022-10-12T03:11:27.269Z,102263.50
2022-10-12T03:14:30.962Z,102264.56
2022-10-12T03:17:33.627Z,102259.63
2022-10-12T03:20:37.814Z,102257.09
2022-10-12T03:23:40.535Z,102266.31
2022-10-12T03:26:43.137Z,102260.50
2022-10-12T03:29:45.666Z,102265.09
2022-10-12T03:32:48.237Z,102256.72
2022-10-12T03:35:52.557Z,102257.50
2022-10-12T03:38:55.361Z,102256.06
2022-10-12T03:41:58.036Z,102257.22
2022-10-12T03:45:00.589Z,102255.16
2022-10-12T03:48:05.148Z,102258.25
2022-10-12T03:51:09.304Z,102260.50
2022-10-12T03:54:11.982Z,102257.75
2022-10-12T03:57:14.533Z,102264.81
2022-10-12T04:00:17.582Z,102257.50
2022-10-12T04:03:20.137Z,102262.63
2022-10-12T04:06:24.155Z,102270.13
2022-10-12T04:09:26.886Z,102265.91
2022-10-12T04:12:29.583Z,102270.56
2022-10-12T04:15:32.183Z,102275.16
2022-10-12T04:18:35.154Z,102272.94
2022-10-12T04:21:39.102Z,102275.84
2022-10-12T04:24:41.821Z,102267.38
2022-10-12T04:27:44.417Z,102271.94
2022-10-12T04:30:47.737Z,102270.91
2022-10-12T04:33:50.436Z,102267.63
2022-10-12T04:36:54.350Z,102265.88
2022-10-12T04:39:57.094Z,102269.16
2022-10-12T04:42:59.765Z,102262.88
2022-10-12T04:46:02.310Z,102263.03
2022-10-12T04:49:04.890Z,102274.09
2022-10-12T04:52:08.808Z,102269.69
2022-10-12T04:55:11.470Z,102274.94
2022-10-12T04:58:14.595Z,102281.41
2022-10-12T05:01:17.387Z,102272.22
2022-10-12T05:04:20.212Z,102277.47
2022-10-12T05:07:24.085Z,102271.75
2022-10-12T05:10:26.800Z,102282.84
2022-10-12T05:13:29.913Z,102268.41
2022-10-12T05:16:32.478Z,102273.56
2022-10-12T05:19:35.075Z,102268.00
2022-10-12T05:22:48.020Z,102271.56
2022-10-12T05:25:50.711Z,102276.16
2022-10-12T05:28:53.260Z,102277.59
2022-10-12T05:31:55.888Z,102276.91
2022-10-12T05:34:58.566Z,102278.09
2022-10-12T05:38:02.439Z,102278.22
2022-10-12T05:41:05.530Z,102274.84
2022-10-12T05:44:08.410Z,102284.06
2022-10-12T05:47:11.546Z,102279.84
2022-10-12T05:50:14.129Z,102279.00
2022-10-12T05:53:18.030Z,102284.72
2022-10-12T05:56:20.710Z,102275.72
2022-10-12T05:59:23.283Z,102288.81
2022-10-12T06:02:26.018Z,102283.88
2022-10-12T06:05:28.715Z,102279.94
2022-10-12T06:08:33.074Z,102285.06
2022-10-12T06:11:36.616Z,102289.38
2022-10-12T06:14:39.417Z,102295.31
2022-10-12T06:17:42.125Z,102296.06
2022-10-12T06:20:47.718Z,102302.97
2022-10-12T06:23:51.636Z,102299.88
2022-10-12T06:26:54.378Z,102309.84
2022-10-12T06:29:56.952Z,102301.94
2022-10-12T06:32:59.639Z,102307.78
2022-10-12T06:36:02.403Z,102307.88
2022-10-12T06:39:06.301Z,102308.25
2022-10-12T06:42:10.142Z,102305.59
2022-10-12T06:45:13.240Z,102297.16
2022-10-12T06:48:18.520Z,102302.41
2022-10-12T06:51:21.674Z,102305.94
2022-10-12T06:54:25.645Z,102300.22
2022-10-12T06:57:28.455Z,102302.56
2022-10-12T07:00:31.030Z,102298.09
2022-10-12T07:03:33.950Z,102303.25
2022-10-12T07:06:36.660Z,102307.78
2022-10-12T07:09:40.655Z,102317.25
2022-10-12T07:12:43.348Z,102314.88
2022-10-12T07:15:50.278Z,102317.59
2022-10-12T07:18:52.854Z,102310.44
2022-10-12T07:21:55.416Z,102311.75
2022-10-12T07:24:59.382Z,102313.22
2022-10-12T07:28:05.245Z,102313.09
2022-10-12T07:31:09.621Z,102318.44
2022-10-12T07:34:12.181Z,102320.59
2022-10-12T07:37:15.468Z,102314.25
2022-10-12T07:40:19.443Z,102313.44
2022-10-12T07:43:22.017Z,102304.38
2022-10-12T07:46:25.941Z,102311.31
2022-10-12T07:49:28.773Z,102318.63
2022-10-12T07:52:32.521Z,102315.16
2022-10-12T07:55:36.655Z,102311.75
2022-10-12T07:58:39.369Z,102313.38
2022-10-12T08:01:42.078Z,102311.13
2022-10-12T08:04:44.794Z,102316.50
2022-10-12T08:07:47.448Z,102315.28
2022-10-12T08:10:51.407Z,102306.81
2022-10-12T08:13:54.219Z,102314.78
2022-10-12T08:16:57.820Z,102311.09
2022-10-12T08:20:00.536Z,102314.56
2022-10-12T08:23:03.211Z,102306.41
2022-10-12T08:26:08.774Z,102303.66
2022-10-12T08:29:11.859Z,102301.56
2022-10-12T08:32:14.454Z,102310.22
2022-10-12T08:35:17.165Z,102310.13
2022-10-12T08:38:19.885Z,102303.94
2022-10-12T08:41:40.797Z,102316.41
2022-10-12T08:45:05.989Z,102313.31
2022-10-12T08:48:14.803Z,102305.31
2022-10-12T08:51:22.071Z,102299.47
2022-10-12T08:54:29.828Z,102304.13
2022-10-12T08:57:35.343Z,102305.97
2022-10-12T09:00:39.831Z,102300.53
2022-10-12T09:03:54.635Z,102301.66
2022-10-12T09:07:01.683Z,102294.19
2022-10-12T09:10:18.761Z,102293.63
2022-10-12T09:13:37.847Z,102290.03
2022-10-12T09:16:44.542Z,102287.91
2022-10-12T09:19:47.080Z,102295.56
2022-10-12T09:22:51.500Z,102292.38
2022-10-12T09:25:57.967Z,102285.16
2022-10-12T09:29:04.068Z,102283.84
2022-10-12T09:32:21.304Z,102285.44
2022-10-12T09:35:23.902Z,102287.94
2022-10-12T09:38:26.786Z,102278.13
2022-10-12T09:41:34.681Z,102274.88
2022-10-12T09:44:41.149Z,102276.44
2022-10-12T09:47:44.258Z,102266.56
2022-10-12T09:50:52.983Z,102269.06
2022-10-12T09:53:58.778Z,102268.97
2022-10-12T09:57:01.569Z,102268.66
2022-10-12T10:00:08.502Z,102263.56
2022-10-12T10:03:29.236Z,102261.19
2022-10-12T10:06:34.370Z,102260.44
2022-10-12T10:09:37.445Z,102263.56
2022-10-12T10:12:48.406Z,102258.00
2022-10-12T10:16:02.476Z,102262.78
2022-10-12T10:19:05.302Z,102248.28
2022-10-12T10:22:07.953Z,102251.34
2022-10-12T10:25:21.531Z,102248.84
2022-10-12T10:28:26.377Z,102254.72
2022-10-12T10:31:30.617Z,102255.81
2022-10-12T10:34:33.337Z,102255.53
2022-10-12T10:37:36.685Z,102244.03
2022-10-12T10:40:39.815Z,102259.53
2022-10-12T10:43:48.648Z,102253.22
2022-10-12T10:46:54.334Z,102251.59
2022-10-12T10:49:59.244Z,102247.59
2022-10-12T10:53:05.886Z,102248.00
2022-10-12T10:56:12.331Z,102248.50
2022-10-12T10:59:22.061Z,102233.88
2022-10-12T11:02:34.675Z,102229.31
2022-10-12T11:05:40.853Z,102221.97
2022-10-12T11:08:45.487Z,102229.22
2022-10-12T11:11:56.235Z,102237.09
2022-10-12T11:15:07.783Z,102227.41
2022-10-12T11:18:17.926Z,102214.59
2022-10-12T11:21:26.007Z,102217.41
2022-10-12T11:24:34.459Z,102205.69
2022-10-12T11:27:38.743Z,102201.41
2022-10-12T11:30:46.528Z,102201.72
2022-10-12T11:33:53.592Z,102196.00
2022-10-12T11:37:20.821Z,102200.78
2022-10-12T11:40:47.662Z,102197.41
2022-10-12T11:43:53.255Z,102186.25
2022-10-12T11:47:01.745Z,102186.25
2022-10-12T11:50:15.138Z,102184.78
2022-10-12T11:53:26.442Z,102177.69
2022-10-12T11:56:36.055Z,102172.31
2022-10-12T11:59:43.595Z,102171.50
2022-10-12T12:02:52.405Z,102172.38
2022-10-12T12:05:56.669Z,102153.66
2022-10-12T12:09:06.268Z,102165.13
2022-10-12T12:12:27.563Z,102158.16
2022-10-12T12:15:30.401Z,102153.72
2022-10-12T12:18:53.675Z,102148.69
2022-10-12T12:22:26.555Z,102155.38
2022-10-12T12:25:33.856Z,102148.41
2022-10-12T12:28:38.220Z,102150.94
2022-10-12T12:31:43.890Z,102153.44
2022-10-12T12:35:00.016Z,102152.31
2022-10-12T12:38:18.598Z,102149.25
2022-10-12T12:41:22.951Z,102151.78
2022-10-12T12:44:41.252Z,102144.00
2022-10-12T12:47:46.164Z,102146.47
2022-10-12T12:51:04.406Z,102143.72
2022-10-12T12:54:16.276Z,102141.78
2022-10-12T12:57:34.883Z,102133.97
2022-10-12T13:04:18.386Z,102120.31
2022-10-12T13:07:44.204Z,102116.94
2022-10-12T13:11:14.579Z,102125.97
2022-10-12T13:14:34.869Z,102120.94
2022-10-12T13:18:18.505Z,102113.69
2022-10-12T13:21:29.351Z,102116.25
2022-10-12T13:24:42.061Z,102119.50
2022-10-12T13:27:49.396Z,102116.25
2022-10-12T13:30:55.622Z,102105.44
2022-10-12T13:34:06.413Z,102106.97
2022-10-12T13:37:14.376Z,102117.72
2022-10-12T13:40:30.363Z,102100.88
2022-10-12T13:43:41.513Z,102105.31
2022-10-12T13:46:45.710Z,102088.13
2022-10-12T13:49:48.335Z,102096.97
2022-10-12T13:52:55.460Z,102097.81
2022-10-12T13:56:02.574Z,102088.66
2022-10-12T13:59:11.232Z,102088.94
2022-10-12T14:02:22.702Z,102086.19
2022-10-12T14:05:27.540Z,102082.94
2022-10-12T14:08:32.381Z,102080.75
2022-10-12T14:11:36.112Z,102088.25
2022-10-12T14:14:42.236Z,102079.41
2022-10-12T14:17:45.495Z,102071.31
2022-10-12T14:20:48.604Z,102075.50
2022-10-12T14:23:54.096Z,102067.13
2022-10-12T14:27:01.212Z,102067.69
2022-10-12T14:30:16.644Z,102064.19
2022-10-12T14:33:23.707Z,102064.81
2022-10-12T14:36:27.831Z,102052.16
2022-10-12T14:39:30.677Z,102051.34
2022-10-12T14:42:35.218Z,102056.78
2022-10-12T14:45:39.193Z,102043.06
2022-10-12T14:48:42.014Z,102041.94
2022-10-12T14:51:45.106Z,102048.03
2022-10-12T14:54:51.333Z,102042.94
2022-10-12T14:57:54.210Z,102033.94
2022-10-12T15:00:58.285Z,102038.91
2022-10-12T15:04:00.859Z,102031.84
2022-10-12T15:07:03.602Z,102032.09
2022-10-12T15:10:07.118Z,102034.59
2022-10-12T15:13:13.344Z,102035.31
2022-10-12T15:16:21.485Z,102030.75
2022-10-12T15:19:24.204Z,102032.44
2022-10-12T15:22:28.955Z,102024.25
2022-10-12T15:25:43.406Z,102020.63
2022-10-12T15:28:46.878Z,102017.81
2022-10-12T15:31:51.429Z,102018.44
2022-10-12T15:34:54.015Z,102008.44
2022-10-12T15:37:57.344Z,102016.66
2022-10-12T15:40:59.908Z,102008.78
2022-10-12T15:44:03.051Z,102011.19
2022-10-12T15:47:07.027Z,102013.53
2022-10-12T15:50:09.916Z,102014.31
2022-10-12T15:53:16.767Z,102018.00
2022-10-12T15:56:19.966Z,102007.31
2022-10-12T15:59:22.672Z,102008.25
2022-10-12T16:02:26.647Z,102012.25
2022-10-12T16:05:32.042Z,102012.34
2022-10-12T16:08:34.764Z,102008.00
2022-10-12T16:11:37.357Z,102006.41
2022-10-12T16:14:40.097Z,102013.03
2022-10-12T16:17:44.018Z,102012.25
2022-10-12T16:20:53.324Z,102002.81
2022-10-12T16:23:57.136Z,102002.91
2022-10-12T16:27:00.169Z,102005.19
2022-10-12T16:30:03.238Z,102014.69
2022-10-12T16:33:07.287Z,102008.59
2022-10-12T16:36:11.848Z,102012.47
2022-10-12T16:39:14.514Z,102010.81
2022-10-12T16:42:17.210Z,102010.81
2022-10-12T16:45:19.963Z,101995.72
2022-10-12T16:48:23.872Z,101996.56
2022-10-12T16:51:26.435Z,102001.34
2022-10-12T16:54:29.013Z,102001.97
2022-10-12T16:57:32.086Z,102005.88
2022-10-12T17:00:34.811Z,102002.03
2022-10-12T17:03:38.976Z,101994.38
2022-10-12T17:06:41.830Z,102007.03
2022-10-12T17:09:44.604Z,102013.22
2022-10-12T17:12:47.308Z,102009.16
2022-10-12T17:15:50.123Z,102008.66
2022-10-12T17:18:59.137Z,102010.03
2022-10-12T17:22:04.706Z,102004.25
2022-10-12T17:25:07.981Z,102007.59
2022-10-12T17:28:10.909Z,102013.16
2022-10-12T17:31:13.894Z,102000.63
2022-10-12T17:34:21.292Z,102002.00
2022-10-12T17:37:24.038Z,102000.03
2022-10-12T17:40:26.950Z,101999.75
2022-10-12T17:43:29.733Z,101994.31
2022-10-12T17:46:32.593Z,101993.59
2022-10-12T17:49:36.666Z,101995.56
2022-10-12T17:52:40.475Z,101992.88
2022-10-12T17:55:48.745Z,101996.53
2022-10-12T17:58:54.927Z,101992.19
2022-10-12T18:01:57.489Z,101986.53
2022-10-12T18:05:01.402Z,101987.66
2022-10-12T18:08:03.975Z,101988.56
2022-10-12T18:11:08.010Z,101984.19
2022-10-12T18:14:11.813Z,101986.53
2022-10-12T18:17:14.617Z,101984.72
2022-10-12T18:20:19.493Z,101978.66
2022-10-12T18:23:22.408Z,101977.44
2022-10-12T18:26:27.819Z,101977.25
2022-10-12T18:29:30.922Z,101980.06
2022-10-12T18:32:34.045Z,101973.34
2022-10-12T18:35:41.690Z,101976.50
2022-10-12T18:38:44.550Z,101976.34
2022-10-12T18:41:51.602Z,101979.56
2022-10-12T18:44:54.867Z,101980.81
2022-10-12T18:47:57.857Z,101975.81
2022-10-12T18:51:06.470Z,101964.66
2022-10-12T18:54:12.773Z,101969.97
2022-10-12T18:57:15.586Z,101965.34
2022-10-12T19:00:19.028Z,101971.50
2022-10-12T19:03:22.263Z,101969.44
2022-10-12T19:06:28.965Z,101965.84
2022-10-12T19:09:32.899Z,101968.16
2022-10-12T19:12:36.043Z,101957.03
2022-10-12T19:15:39.287Z,101964.03
2022-10-12T19:18:42.671Z,101959.84
2022-10-12T19:21:46.845Z,101953.28
2022-10-12T19:24:49.594Z,101952.03
2022-10-12T19:27:52.140Z,101953.97
2022-10-12T19:30:54.938Z,101951.69
2022-10-12T19:33:58.927Z,101952.16
2022-10-12T19:37:03.207Z,101944.56
2022-10-12T19:40:07.901Z,101950.47
2022-10-12T19:43:10.791Z,101953.88
2022-10-12T19:46:14.810Z,101951.34
2022-10-12T19:49:18.992Z,101948.25
2022-10-12T19:52:23.075Z,101939.41
2022-10-12T19:55:26.208Z,101938.78
2022-10-12T19:58:29.626Z,101935.22
2022-10-12T20:01:34.923Z,101944.09
2022-10-12T20:04:38.007Z,101933.13
2022-10-12T20:07:42.321Z,101924.72
2022-10-12T20:10:46.767Z,101927.00
2022-10-12T20:13:53.612Z,101933.13
2022-10-12T20:16:56.772Z,101931.47
2022-10-12T20:19:59.995Z,101928.53
2022-10-12T20:23:04.862Z,101931.91
2022-10-12T20:26:10.846Z,101924.34
2022-10-12T20:29:13.870Z,101935.69
2022-10-12T20:32:17.091Z,101929.81
2022-10-12T20:35:19.900Z,101917.59
2022-10-12T20:38:25.898Z,101923.28
2022-10-12T20:41:29.229Z,101921.41
2022-10-12T20:44:32.078Z,101908.16
2022-10-12T20:47:35.468Z,101915.34
2022-10-12T20:50:38.686Z,101914.28
2022-10-12T20:53:42.970Z,101908.81
2022-10-12T20:56:49.531Z,101897.88
2022-10-12T20:59:52.552Z,101907.13
2022-10-12T21:02:55.274Z,101898.31
2022-10-12T21:05:58.626Z,101898.31
2022-10-12T21:09:02.733Z,101900.84
2022-10-12T21:12:05.850Z,101895.59
2022-10-12T21:15:09.426Z,101890.53
2022-10-12T21:18:12.546Z,101885.69
2022-10-12T21:21:19.661Z,101885.28
2022-10-12T21:24:23.935Z,101890.75
2022-10-12T21:27:26.817Z,101886.75
2022-10-12T21:30:29.516Z,101880.22
2022-10-12T21:33:32.493Z,101887.59
2022-10-12T21:36:36.597Z,101893.28
2022-10-12T21:39:40.861Z,101888.91
2022-10-12T21:42:43.770Z,101894.13
2022-10-12T21:45:46.588Z,101896.03
2022-10-12T21:48:50.150Z,101896.88
2022-10-12T21:51:54.274Z,101895.41
2022-10-12T21:54:58.706Z,101887.66
2022-10-12T21:58:02.324Z,101892.88
2022-10-12T22:01:07.374Z,101896.69
2022-10-12T22:04:13.719Z,101895.00
2022-10-12T22:07:16.575Z,101896.03
2022-10-12T22:10:20.806Z,101883.25
2022-10-12T22:13:23.694Z,101882.56
2022-10-12T22:16:27.903Z,101875.22
2022-10-12T22:19:32.301Z,101872.28
2022-10-12T22:22:35.224Z,101879.84
2022-10-12T22:25:39.353Z,101870.63
2022-10-12T22:28:42.105Z,101872.06
2022-10-12T22:31:46.468Z,101870.59
2022-10-12T22:34:49.233Z,101872.28
2022-10-12T22:37:52.098Z,101873.34
2022-10-12T22:40:57.315Z,101866.41
2022-10-12T22:44:00.115Z,101864.09
2022-10-12T22:47:03.128Z,101859.88
2022-10-12T22:50:06.652Z,101850.22
2022-10-12T22:53:09.691Z,101854.84
2022-10-12T22:56:17.468Z,101857.34
2022-10-12T22:59:21.124Z,101850.44
2022-10-12T23:02:23.935Z,101848.75
2022-10-12T23:05:27.028Z,101848.34
2022-10-12T23:08:30.536Z,101844.31
2022-10-12T23:11:34.755Z,101845.81
2022-10-12T23:14:37.675Z,101838.88
2022-10-12T23:17:43.301Z,101837.19
2022-10-12T23:20:46.200Z,101833.63
2022-10-12T23:23:49.487Z,101835.53
2022-10-12T23:26:53.450Z,101844.13
2022-10-12T23:29:56.216Z,101839.09
2022-10-12T23:32:58.846Z,101834.91
2022-10-12T23:36:03.524Z,101840.97
2022-10-12T23:39:06.559Z,101838.22
2022-10-12T23:42:10.634Z,101833.81
2022-10-12T23:45:13.355Z,101824.78
2022-10-12T23:48:16.718Z,101832.34
2022-10-12T23:51:19.526Z,101829.00
2022-10-12T23:54:22.288Z,101829.22
2022-10-12T23:57:45.807Z,101833.00
